createdAt,value
2019-05-01T00:01:29.386Z,12.95
2019-05-01T00:04:14.684Z,12.87
2019-05-01T00:06:47.258Z,12.63
2019-05-01T00:09:16.785Z,12.66
2019-05-01T00:11:45.322Z,12.63
2019-05-01T00:14:14.139Z,12.54
2019-05-01T00:16:44.111Z,12.53
2019-05-01T00:19:12.579Z,12.44
2019-05-01T00:21:41.081Z,12.63
2019-05-01T00:24:09.643Z,12.60
2019-05-01T00:26:38.119Z,12.65
2019-05-01T00:29:06.600Z,12.69
2019-05-01T00:31:35.116Z,12.56
2019-05-01T00:34:03.589Z,12.65
2019-05-01T00:36:32.131Z,12.45
2019-05-01T00:39:00.648Z,12.70
2019-05-01T00:41:29.151Z,12.60
2019-05-01T00:43:57.695Z,12.45
2019-05-01T00:46:26.206Z,12.28
2019-05-01T00:48:54.683Z,12.19
2019-05-01T00:51:23.170Z,12.23
2019-05-01T00:53:51.652Z,12.21
2019-05-01T00:56:21.962Z,12.27
2019-05-01T00:58:57.938Z,12.35
2019-05-01T01:01:37.268Z,12.31
2019-05-01T01:04:05.756Z,12.20
2019-05-01T01:06:34.243Z,12.39
2019-05-01T01:09:03.009Z,12.37
2019-05-01T01:11:31.512Z,12.28
2019-05-01T01:13:59.983Z,12.32
2019-05-01T01:16:28.469Z,12.31
2019-05-01T01:18:56.954Z,12.33
2019-05-01T01:21:25.486Z,12.34
2019-05-01T01:23:54.032Z,12.31
2019-05-01T01:26:22.602Z,12.41
2019-05-01T01:28:51.151Z,12.47
2019-05-01T01:31:19.662Z,12.27
2019-05-01T01:33:48.138Z,12.25
2019-05-01T01:36:16.626Z,12.24
2019-05-01T01:38:45.118Z,12.25
2019-05-01T01:41:13.866Z,12.25
2019-05-01T01:43:53.134Z,12.28
2019-05-01T01:46:29.105Z,12.28
2019-05-01T01:48:58.609Z,12.32
2019-05-01T01:51:27.934Z,12.22
2019-05-01T01:53:57.954Z,12.36
2019-05-01T01:56:26.994Z,12.35
2019-05-01T01:58:56.210Z,12.38
2019-05-01T02:01:26.793Z,12.31
2019-05-01T02:06:44.782Z,12.32
2019-05-01T02:09:13.434Z,12.33
2019-05-01T02:11:42.284Z,12.36
2019-05-01T02:14:10.846Z,12.36
2019-05-01T02:16:39.343Z,12.28
2019-05-01T02:19:08.002Z,12.33
2019-05-01T02:21:36.490Z,12.38
2019-05-01T02:24:05.085Z,12.40
2019-05-01T02:26:35.832Z,12.38
2019-05-01T02:29:15.664Z,12.34
2019-05-01T02:31:46.311Z,12.30
2019-05-01T02:34:16.160Z,12.33
2019-05-01T02:36:46.869Z,12.28
2019-05-01T02:39:17.212Z,12.29
2019-05-01T02:41:48.279Z,12.32
2019-05-01T02:44:22.782Z,12.28
2019-05-01T02:46:53.843Z,12.24
2019-05-01T02:49:31.169Z,12.30
2019-05-01T02:51:59.908Z,12.33
2019-05-01T02:54:29.611Z,12.28
2019-05-01T02:57:03.879Z,12.28
2019-05-01T02:59:35.101Z,12.28
2019-05-01T03:02:04.816Z,12.33
2019-05-01T03:04:34.251Z,12.39
2019-05-01T03:07:04.536Z,12.37
2019-05-01T03:09:34.943Z,12.32
2019-05-01T03:12:04.262Z,12.34
2019-05-01T03:14:35.899Z,12.33
2019-05-01T03:17:06.980Z,12.37
2019-05-01T03:19:37.129Z,12.33
2019-05-01T03:22:17.104Z,12.28
2019-05-01T03:24:45.612Z,12.27
2019-05-01T03:27:14.144Z,12.25
2019-05-01T03:29:42.651Z,12.29
2019-05-01T03:32:18.597Z,12.23
2019-05-01T03:34:41.837Z,12.14
2019-05-01T03:37:10.698Z,12.18
2019-05-01T03:39:39.866Z,12.19
2019-05-01T03:42:08.708Z,12.09
2019-05-01T03:44:37.644Z,12.10
2019-05-01T03:47:06.158Z,12.02
2019-05-01T03:49:35.013Z,11.98
2019-05-01T03:52:03.886Z,12.01
2019-05-01T03:54:33.466Z,12.01
2019-05-01T03:57:02.735Z,11.96
2019-05-01T03:59:31.411Z,12.02
2019-05-01T04:02:32.029Z,12.05
2019-05-01T04:04:48.150Z,12.00
2019-05-01T04:07:16.998Z,12.04
2019-05-01T04:09:45.515Z,11.94
2019-05-01T04:12:14.367Z,11.96
2019-05-01T04:14:42.877Z,11.97
2019-05-01T04:17:22.246Z,11.94
2019-05-01T04:19:51.221Z,11.95
2019-05-01T04:22:19.918Z,11.97
2019-05-01T04:24:48.956Z,11.89
2019-05-01T04:27:19.350Z,11.85
2019-05-01T04:30:00.009Z,11.87
2019-05-01T04:32:30.790Z,11.82
2019-05-01T04:35:17.904Z,11.84
2019-05-01T04:37:46.896Z,11.82
2019-05-01T04:40:18.772Z,11.84
2019-05-01T04:42:46.420Z,11.84
2019-05-01T04:45:15.163Z,11.74
2019-05-01T04:47:44.193Z,11.74
2019-05-01T04:50:12.773Z,11.79
2019-05-01T04:52:41.803Z,11.84
2019-05-01T04:55:11.013Z,11.83
2019-05-01T04:57:39.795Z,11.83
2019-05-01T05:00:08.786Z,11.81
2019-05-01T05:02:45.335Z,11.76
2019-05-01T05:05:14.119Z,11.75
2019-05-01T05:07:43.065Z,11.74
2019-05-01T05:10:11.908Z,11.77
2019-05-01T05:12:49.084Z,11.81
2019-05-01T05:15:25.619Z,11.79
2019-05-01T05:17:54.656Z,11.78
2019-05-01T05:20:23.880Z,11.92
2019-05-01T05:22:52.642Z,11.98
2019-05-01T05:25:21.310Z,11.99
2019-05-01T05:27:51.818Z,11.94
2019-05-01T05:30:22.030Z,11.93
2019-05-01T05:32:52.837Z,11.93
2019-05-01T05:35:24.563Z,11.98
2019-05-01T05:37:57.382Z,12.04
2019-05-01T05:40:29.927Z,12.15
2019-05-01T05:42:58.614Z,12.25
2019-05-01T05:45:27.368Z,12.36
2019-05-01T05:47:56.074Z,12.32
2019-05-01T05:50:31.870Z,12.33
2019-05-01T05:53:10.251Z,12.32
2019-05-01T05:55:41.737Z,12.47
2019-05-01T05:58:14.293Z,12.62
2019-05-01T06:00:49.225Z,12.67
2019-05-01T06:03:31.622Z,12.73
2019-05-01T06:06:11.539Z,12.96
2019-05-01T06:08:43.445Z,12.92
2019-05-01T06:11:29.712Z,12.90
2019-05-01T06:14:04.186Z,12.65
2019-05-01T06:16:40.440Z,12.59
2019-05-01T06:19:23.069Z,12.57
2019-05-01T06:22:11.876Z,12.51
2019-05-01T06:24:59.082Z,12.44
2019-05-01T06:27:28.191Z,12.46
2019-05-01T06:29:58.238Z,12.28
2019-05-01T06:32:28.907Z,12.16
2019-05-01T06:34:58.569Z,12.21
2019-05-01T06:38:00.694Z,12.33
2019-05-01T06:40:41.834Z,12.71
2019-05-01T06:45:53.157Z,13.36
2019-05-01T06:48:23.306Z,13.28
2019-05-01T06:50:54.179Z,13.31
2019-05-01T06:53:23.492Z,13.51
2019-05-01T06:55:52.642Z,13.63
2019-05-01T06:58:22.247Z,13.54
2019-05-01T07:00:52.199Z,13.22
2019-05-01T07:03:21.534Z,13.25
2019-05-01T07:05:54.470Z,13.02
2019-05-01T07:08:24.808Z,12.75
2019-05-01T07:10:51.589Z,12.79
2019-05-01T07:13:20.206Z,12.71
2019-05-01T07:15:48.784Z,12.70
2019-05-01T07:18:18.838Z,12.74
2019-05-01T07:20:51.368Z,12.71
2019-05-01T07:23:21.605Z,12.60
2019-05-01T07:25:50.630Z,12.64
2019-05-01T07:28:19.453Z,12.74
2019-05-01T07:30:54.783Z,12.64
2019-05-01T07:33:23.941Z,12.75
2019-05-01T07:35:54.035Z,12.74
2019-05-01T07:38:22.889Z,12.75
2019-05-01T07:40:51.495Z,12.62
2019-05-01T07:43:27.657Z,12.50
2019-05-01T07:46:04.262Z,12.49
2019-05-01T07:48:41.557Z,12.53
2019-05-01T07:51:11.528Z,12.37
2019-05-01T07:53:40.650Z,12.41
2019-05-01T07:56:10.184Z,12.54
2019-05-01T07:58:39.512Z,12.66
2019-05-01T08:01:13.149Z,12.83
2019-05-01T08:03:42.624Z,13.02
2019-05-01T08:06:16.192Z,13.24
2019-05-01T08:08:43.052Z,13.63
2019-05-01T08:11:11.678Z,13.90
2019-05-01T08:13:40.137Z,13.77
2019-05-01T08:16:08.920Z,13.65
2019-05-01T08:18:54.271Z,13.68
2019-05-01T08:21:39.263Z,13.58
2019-05-01T08:24:08.776Z,13.73
2019-05-01T08:26:42.589Z,13.84
2019-05-01T08:29:09.241Z,13.85
2019-05-01T08:31:39.427Z,13.91
2019-05-01T08:34:09.557Z,14.21
2019-05-01T08:36:38.118Z,14.29
2019-05-01T08:39:09.263Z,14.29
2019-05-01T08:41:37.821Z,14.45
2019-05-01T08:44:07.433Z,14.37
2019-05-01T08:46:53.961Z,14.80
2019-05-01T08:49:26.761Z,15.07
2019-05-01T08:51:55.307Z,14.94
2019-05-01T08:54:23.807Z,14.94
2019-05-01T08:56:53.140Z,15.46
2019-05-01T08:59:24.111Z,15.81
2019-05-01T09:02:08.416Z,16.45
2019-05-01T09:04:25.422Z,16.53
2019-05-01T09:06:53.175Z,17.40
2019-05-01T09:09:21.747Z,17.87
2019-05-01T09:11:50.225Z,18.21
2019-05-01T09:14:18.721Z,18.22
2019-05-01T09:16:47.220Z,18.52
2019-05-01T09:19:15.808Z,18.52
2019-05-01T09:21:44.356Z,18.43
2019-05-01T09:24:12.867Z,19.07
2019-05-01T09:26:50.146Z,18.87
2019-05-01T09:29:21.268Z,18.94
2019-05-01T09:31:50.223Z,19.71
2019-05-01T09:34:20.728Z,19.22
2019-05-01T09:36:49.237Z,19.67
2019-05-01T09:39:19.479Z,19.42
2019-05-01T09:41:48.826Z,20.77
2019-05-01T09:44:17.506Z,20.94
2019-05-01T09:46:46.206Z,21.87
2019-05-01T09:49:18.285Z,21.13
2019-05-01T09:51:52.392Z,21.13
2019-05-01T09:54:25.562Z,21.54
2019-05-01T09:56:54.109Z,21.12
2019-05-01T09:59:22.753Z,21.12
2019-05-01T10:01:51.406Z,21.17
2019-05-01T10:04:19.907Z,21.81
2019-05-01T10:06:52.326Z,22.24
2019-05-01T10:09:18.610Z,21.38
2019-05-01T10:11:47.194Z,22.87
2019-05-01T10:14:15.881Z,21.37
2019-05-01T10:16:44.499Z,21.68
2019-05-01T10:19:13.009Z,20.50
2019-05-01T10:21:41.532Z,20.80
2019-05-01T10:24:10.132Z,20.12
2019-05-01T10:26:40.534Z,19.66
2019-05-01T10:29:13.360Z,19.67
2019-05-01T10:31:55.573Z,19.37
2019-05-01T10:34:42.879Z,20.25
2019-05-01T10:37:12.680Z,20.29
2019-05-01T10:39:41.445Z,20.42
2019-05-01T10:42:09.923Z,21.76
2019-05-01T10:44:38.423Z,22.20
2019-05-01T10:47:06.967Z,21.20
2019-05-01T10:49:35.574Z,21.85
2019-05-01T10:52:13.879Z,21.70
2019-05-01T10:54:34.507Z,21.99
2019-05-01T10:57:03.731Z,21.29
2019-05-01T10:59:33.152Z,20.97
2019-05-01T11:02:03.458Z,20.49
2019-05-01T11:04:31.985Z,19.69
2019-05-01T11:07:00.487Z,19.50
2019-05-01T11:09:28.965Z,19.41
2019-05-01T11:11:57.464Z,19.35
2019-05-01T11:14:25.938Z,19.33
2019-05-01T11:16:54.459Z,18.89
2019-05-01T11:19:22.957Z,18.96
2019-05-01T11:21:51.516Z,19.11
2019-05-01T11:24:19.995Z,18.77
2019-05-01T11:26:48.480Z,18.72
2019-05-01T11:29:16.985Z,18.80
2019-05-01T11:32:03.621Z,18.68
2019-05-01T11:34:33.744Z,19.17
2019-05-01T11:37:20.573Z,19.33
2019-05-01T11:39:56.632Z,18.96
2019-05-01T11:42:25.149Z,18.78
2019-05-01T11:44:53.610Z,18.49
2019-05-01T11:47:22.102Z,18.55
2019-05-01T11:49:50.584Z,18.62
2019-05-01T11:52:19.134Z,18.46
2019-05-01T11:54:47.618Z,18.39
2019-05-01T11:57:16.119Z,18.35
2019-05-01T11:59:44.613Z,17.97
2019-05-01T12:02:13.105Z,17.95
2019-05-01T12:04:41.602Z,17.83
2019-05-01T12:07:10.117Z,17.57
2019-05-01T12:09:38.601Z,17.50
2019-05-01T12:12:11.458Z,17.58
2019-05-01T12:14:39.936Z,17.76
2019-05-01T12:17:10.185Z,17.85
2019-05-01T12:19:38.675Z,17.83
2019-05-01T12:22:07.272Z,17.77
2019-05-01T12:24:35.729Z,17.82
2019-05-01T12:27:04.206Z,17.77
2019-05-01T12:29:32.698Z,17.78
2019-05-01T12:32:01.176Z,17.74
2019-05-01T12:34:29.685Z,17.74
2019-05-01T12:37:18.132Z,18.04
2019-05-01T12:39:47.122Z,18.14
2019-05-01T12:42:17.311Z,18.22
2019-05-01T12:44:45.913Z,18.09
2019-05-01T12:47:21.816Z,18.22
2019-05-01T12:49:51.970Z,17.99
2019-05-01T12:52:22.300Z,18.02
2019-05-01T12:54:52.492Z,18.03
2019-05-01T12:57:20.966Z,17.97
2019-05-01T12:59:49.560Z,18.02
2019-05-01T13:02:18.009Z,17.85
2019-05-01T13:04:46.611Z,17.72
2019-05-01T13:07:15.380Z,17.80
2019-05-01T13:09:44.059Z,17.95
2019-05-01T13:12:12.534Z,17.91
2019-05-01T13:14:41.032Z,17.80
2019-05-01T13:17:09.504Z,17.80
2019-05-01T13:19:38.037Z,17.78
2019-05-01T13:22:07.578Z,17.68
2019-05-01T13:24:37.743Z,17.64
2019-05-01T13:27:13.965Z,17.62
2019-05-01T13:29:46.558Z,17.62
2019-05-01T13:32:33.052Z,17.51
2019-05-01T13:35:01.558Z,17.47
2019-05-01T13:37:30.051Z,17.39
2019-05-01T13:39:58.657Z,17.36
2019-05-01T13:42:27.156Z,17.37
2019-05-01T13:44:55.744Z,17.50
2019-05-01T13:47:24.219Z,17.54
2019-05-01T13:49:52.891Z,17.49
2019-05-01T13:52:21.385Z,17.42
2019-05-01T13:54:49.910Z,17.49
2019-05-01T13:57:18.385Z,17.37
2019-05-01T13:59:46.882Z,17.47
2019-05-01T14:02:15.379Z,17.50
2019-05-01T14:04:43.881Z,17.42
2019-05-01T14:07:16.548Z,17.38
2019-05-01T14:09:42.902Z,17.41
2019-05-01T14:12:11.398Z,17.34
2019-05-01T14:14:39.914Z,17.33
2019-05-01T14:17:08.386Z,17.40
2019-05-01T14:22:30.167Z,17.33
2019-05-01T14:25:00.316Z,17.44
2019-05-01T14:27:28.764Z,17.44
2019-05-01T14:29:57.275Z,17.50
2019-05-01T14:32:26.386Z,17.55
2019-05-01T14:34:54.878Z,17.58
2019-05-01T14:37:29.647Z,17.49
2019-05-01T14:39:54.922Z,17.38
2019-05-01T14:42:23.446Z,17.39
2019-05-01T14:44:51.985Z,17.43
2019-05-01T14:47:23.893Z,17.47
2019-05-01T14:49:52.414Z,17.47
2019-05-01T14:52:20.909Z,17.48
2019-05-01T14:54:49.398Z,17.46
2019-05-01T14:57:17.890Z,17.49
2019-05-01T14:59:46.376Z,17.54
2019-05-01T15:02:14.957Z,17.58
2019-05-01T15:04:43.535Z,17.59
2019-05-01T15:07:12.130Z,17.61
2019-05-01T15:09:40.605Z,17.55
2019-05-01T15:12:10.101Z,17.45
2019-05-01T15:14:40.246Z,17.53
2019-05-01T15:17:10.369Z,17.59
2019-05-01T15:19:48.407Z,17.63
2019-05-01T15:22:16.993Z,17.60
2019-05-01T15:24:45.497Z,17.55
2019-05-01T15:27:14.078Z,17.57
2019-05-01T15:29:42.579Z,17.54
2019-05-01T15:32:11.048Z,17.44
2019-05-01T15:34:39.508Z,17.43
2019-05-01T15:37:08.003Z,17.42
2019-05-01T15:39:40.851Z,17.46
2019-05-01T15:42:20.032Z,17.47
2019-05-01T15:44:48.503Z,17.49
2019-05-01T15:47:16.995Z,17.51
2019-05-01T15:49:45.456Z,17.49
2019-05-01T15:52:14.008Z,17.46
2019-05-01T15:54:42.488Z,17.43
2019-05-01T15:57:10.971Z,17.45
2019-05-01T15:59:39.463Z,17.43
2019-05-01T16:02:07.964Z,17.26
2019-05-01T16:04:36.442Z,17.17
2019-05-01T16:07:05.417Z,17.14
2019-05-01T16:09:33.889Z,17.03
2019-05-01T16:12:20.199Z,16.98
2019-05-01T16:14:49.107Z,16.98
2019-05-01T16:17:18.031Z,16.89
2019-05-01T16:19:46.556Z,16.83
2019-05-01T16:22:15.034Z,16.76
2019-05-01T16:24:43.523Z,16.76
2019-05-01T16:27:12.182Z,16.78
2019-05-01T16:29:40.755Z,16.79
2019-05-01T16:32:09.403Z,16.85
2019-05-01T16:34:37.897Z,16.88
2019-05-01T16:37:07.053Z,16.89
2019-05-01T16:39:55.889Z,16.91
2019-05-01T16:42:26.345Z,16.92
2019-05-01T16:44:55.116Z,16.96
2019-05-01T16:47:23.579Z,16.97
2019-05-01T16:49:52.062Z,16.99
2019-05-01T16:52:22.449Z,17.01
2019-05-01T16:54:59.022Z,16.99
2019-05-01T16:57:21.294Z,17.00
2019-05-01T16:59:49.784Z,17.01
2019-05-01T17:02:28.597Z,16.97
2019-05-01T17:04:58.718Z,16.99
2019-05-01T17:07:28.927Z,16.98
2019-05-01T17:10:17.155Z,16.96
2019-05-01T17:12:50.823Z,16.93
2019-05-01T17:15:21.371Z,16.97
2019-05-01T17:17:49.902Z,17.00
2019-05-01T17:20:18.495Z,16.94
2019-05-01T17:22:50.813Z,16.94
2019-05-01T17:25:17.619Z,16.90
2019-05-01T17:27:47.100Z,16.88
2019-05-01T17:30:20.105Z,16.89
2019-05-01T17:32:51.426Z,16.88
2019-05-01T17:35:19.930Z,16.83
2019-05-01T17:37:48.406Z,16.82
2019-05-01T17:40:16.884Z,16.76
2019-05-01T17:42:45.365Z,16.69
2019-05-01T17:45:13.990Z,16.61
2019-05-01T17:47:42.473Z,16.62
2019-05-01T17:50:11.259Z,16.56
2019-05-01T17:52:39.979Z,16.51
2019-05-01T17:55:08.932Z,16.49
2019-05-01T17:57:37.587Z,16.43
2019-05-01T18:00:31.526Z,16.41
2019-05-01T18:03:13.726Z,16.40
2019-05-01T18:06:01.428Z,16.33
2019-05-01T18:08:30.066Z,16.30
2019-05-01T18:10:58.606Z,16.16
2019-05-01T18:13:27.190Z,16.16
2019-05-01T18:15:55.644Z,16.12
2019-05-01T18:18:24.162Z,16.02
2019-05-01T18:20:52.795Z,15.89
2019-05-01T18:23:25.783Z,15.86
2019-05-01T18:25:55.884Z,15.81
2019-05-01T18:28:29.853Z,15.79
2019-05-01T18:30:58.793Z,15.70
2019-05-01T18:33:27.376Z,15.67
2019-05-01T18:35:55.865Z,15.63
2019-05-01T18:38:26.033Z,15.59
2019-05-01T18:40:56.148Z,15.58
2019-05-01T18:43:27.131Z,15.43
2019-05-01T18:45:57.493Z,15.44
2019-05-01T18:48:26.444Z,15.42
2019-05-01T18:50:56.349Z,15.40
2019-05-01T18:53:25.088Z,15.35
2019-05-01T18:55:53.566Z,15.30
2019-05-01T18:58:22.119Z,15.26
2019-05-01T19:00:51.041Z,15.15
2019-05-01T19:03:22.342Z,15.10
2019-05-01T19:05:49.840Z,15.03
2019-05-01T19:08:18.627Z,14.86
2019-05-01T19:10:47.095Z,14.87
2019-05-01T19:13:17.245Z,14.77
2019-05-01T19:15:45.885Z,14.66
2019-05-01T19:18:14.364Z,14.64
2019-05-01T19:20:42.834Z,14.56
2019-05-01T19:23:11.373Z,14.53
2019-05-01T19:25:40.301Z,14.42
2019-05-01T19:28:09.513Z,14.41
2019-05-01T19:30:38.049Z,14.37
2019-05-01T19:33:06.516Z,14.31
2019-05-01T19:35:35.013Z,14.27
2019-05-01T19:38:03.473Z,14.19
2019-05-01T19:40:32.854Z,14.23
2019-05-01T19:43:01.509Z,14.20
2019-05-01T19:45:30.686Z,14.15
2019-05-01T19:47:59.407Z,14.02
2019-05-01T19:50:27.977Z,13.93
2019-05-01T19:52:56.499Z,13.86
2019-05-01T19:55:25.014Z,13.83
2019-05-01T19:57:53.502Z,13.80
2019-05-01T20:00:41.816Z,13.73
2019-05-01T20:03:10.325Z,13.63
2019-05-01T20:05:41.631Z,13.62
2019-05-01T20:08:09.012Z,13.60
2019-05-01T20:10:37.594Z,13.52
2019-05-01T20:13:06.972Z,13.48
2019-05-01T20:15:36.482Z,13.42
2019-05-01T20:18:05.396Z,13.31
2019-05-01T20:20:34.059Z,13.28
2019-05-01T20:23:04.213Z,13.32
2019-05-01T20:25:32.723Z,13.28
2019-05-01T20:28:01.193Z,13.18
2019-05-01T20:30:29.757Z,13.22
2019-05-01T20:33:02.244Z,13.20
2019-05-01T20:35:30.173Z,13.20
2019-05-01T20:37:59.064Z,13.17
2019-05-01T20:40:27.608Z,13.25
2019-05-01T20:42:56.159Z,13.15
2019-05-01T20:45:24.702Z,13.09
2019-05-01T20:47:54.374Z,13.04
2019-05-01T20:50:23.124Z,13.12
2019-05-01T20:52:51.763Z,13.14
2019-05-01T20:55:20.247Z,12.98
2019-05-01T20:57:49.888Z,13.01
2019-05-01T21:00:20.995Z,12.97
2019-05-01T21:02:49.454Z,12.94
2019-05-01T21:05:28.736Z,12.79
2019-05-01T21:07:58.877Z,12.67
2019-05-01T21:10:50.682Z,12.65
2019-05-01T21:13:17.900Z,12.65
2019-05-01T21:15:47.247Z,12.50
2019-05-01T21:18:16.028Z,12.48
2019-05-01T21:20:44.534Z,12.45
2019-05-01T21:23:14.379Z,12.42
2019-05-01T21:25:43.863Z,12.34
2019-05-01T21:28:14.209Z,12.34
2019-05-01T21:30:43.984Z,12.24
2019-05-01T21:33:13.924Z,12.22
2019-05-01T21:35:44.465Z,12.17
2019-05-01T21:38:12.840Z,12.20
2019-05-01T21:40:43.733Z,12.21
2019-05-01T21:43:13.409Z,12.05
2019-05-01T21:45:43.359Z,12.05
2019-05-01T21:48:13.414Z,12.07
2019-05-01T21:50:43.883Z,12.01
2019-05-01T21:53:12.929Z,11.96
2019-05-01T21:55:41.565Z,11.85
2019-05-01T21:58:10.046Z,11.85
2019-05-01T22:00:40.669Z,11.76
2019-05-01T22:03:09.273Z,11.76
2019-05-01T22:05:39.621Z,11.71
2019-05-01T22:08:08.322Z,11.69
2019-05-01T22:10:36.804Z,11.58
2019-05-01T22:13:05.296Z,11.49
2019-05-01T22:15:50.564Z,11.46
2019-05-01T22:18:23.673Z,11.40
2019-05-01T22:20:53.787Z,11.45
2019-05-01T22:26:00.037Z,11.28
2019-05-01T22:28:50.209Z,11.28
2019-05-01T22:31:22.134Z,11.15
2019-05-01T22:33:53.248Z,11.19
2019-05-01T22:36:21.776Z,11.19
2019-05-01T22:38:50.337Z,11.15
2019-05-01T22:41:18.801Z,11.23
2019-05-01T22:43:47.290Z,11.07
2019-05-01T22:46:17.477Z,10.98
2019-05-01T22:48:46.001Z,11.03
2019-05-01T22:51:16.123Z,11.11
2019-05-01T22:53:46.264Z,10.82
2019-05-01T22:56:14.831Z,10.81
2019-05-01T22:58:43.362Z,10.74
2019-05-01T23:01:13.276Z,10.70
2019-05-01T23:03:52.685Z,10.69
2019-05-01T23:06:21.345Z,10.57
2019-05-01T23:08:51.139Z,10.42
2019-05-01T23:11:20.743Z,10.43
2019-05-01T23:13:49.223Z,10.36
2019-05-01T23:16:19.343Z,10.33
2019-05-01T23:18:51.925Z,10.23
2019-05-01T23:21:18.124Z,10.23
2019-05-01T23:23:46.658Z,10.14
2019-05-01T23:26:16.824Z,10.14
2019-05-01T23:28:45.353Z,10.14
2019-05-01T23:31:15.407Z,10.10
2019-05-01T23:33:45.804Z,10.08
2019-05-01T23:36:23.293Z,10.07
2019-05-01T23:38:44.438Z,10.03
2019-05-01T23:41:12.879Z,10.09
2019-05-01T23:43:41.455Z,10.07
2019-05-01T23:46:10.112Z,10.07
2019-05-01T23:48:38.602Z,10.01
2019-05-01T23:51:07.106Z,10.03
2019-05-01T23:53:35.585Z,9.99
2019-05-01T23:56:04.164Z,9.98
2019-05-01T23:58:32.644Z,9.93
